Time;durP1;ratioP1;P1;durP2;ratioP2;P2;SDS_P1;SDS_P2;PMS_P1;PMS_P2;Temp;Humidity;BMP_temperature;BMP_pressure;BME280_temperature;BME280_humidity;BME280_pressure;Samples;Min_cycle;Max_cycle;Signal;HPM_P1;HPM_P2
2021/08/27 00:01:18;;;;;;;1.97;0.70;;;;;;;13.86;73.33;100145.44;1697579;83;20876;-78
2021/08/27 00:03:48;;;;;;;4.03;0.72;;;;;;;13.87;73.36;100149.28;1696927;83;21178;-78
2021/08/27 00:06:14;;;;;;;1.05;0.70;;;;;;;13.84;73.21;100142.89;1697561;84;20955;-78
2021/08/27 00:08:41;;;;;;;1.85;0.70;;;;;;;13.81;73.30;100152.55;1697026;83;22004;-78
2021/08/27 00:11:09;;;;;;;5.08;0.80;;;;;;;13.79;73.37;100155.21;1697471;83;20943;-78
2021/08/27 00:13:35;;;;;;;;;;;;;;;13.80;73.48;100146.51;1699986;83;20911;-78
2021/08/27 00:16:01;;;;;;;0.60;0.60;;;;;;;13.83;73.98;100153.34;1697690;84;20215;-78
2021/08/27 00:18:28;;;;;;;0.57;0.50;;;;;;;13.84;73.64;100153.74;1696936;83;21281;-78
2021/08/27 00:20:54;;;;;;;1.40;0.80;;;;;;;13.85;73.61;100154.14;1697540;84;20959;-78
2021/08/27 00:23:21;;;;;;;1.92;0.60;;;;;;;13.85;73.62;100162.78;1697644;83;20907;-78
2021/08/27 00:25:47;;;;;;;1.00;0.60;;;;;;;13.85;73.66;100164.53;1693969;83;21877;-78
2021/08/27 00:28:13;;;;;;;1.05;0.60;;;;;;;13.83;73.70;100168.48;1697284;83;20939;-78
2021/08/27 00:30:41;;;;;;;1.27;0.60;;;;;;;13.84;73.74;100170.19;1697328;83;20903;-78
2021/08/27 00:33:07;;;;;;;0.70;0.70;;;;;;;13.84;73.74;100167.59;1697259;83;20955;-78
2021/08/27 00:35:33;;;;;;;2.12;0.85;;;;;;;13.83;73.79;100157.25;1697285;83;20915;-78
2021/08/27 00:37:59;;;;;;;1.05;0.75;;;;;;;13.81;73.87;100165.09;1697223;84;21363;-78
2021/08/27 00:40:26;;;;;;;0.60;0.60;;;;;;;13.82;73.91;100169.39;1697456;83;20903;-78
2021/08/27 00:42:52;;;;;;;1.87;1.00;;;;;;;13.80;73.80;100168.59;1697237;83;20932;-78
2021/08/27 00:45:18;;;;;;;1.05;0.70;;;;;;;13.73;73.70;100170.17;1692461;83;20974;-78
2021/08/27 00:47:45;;;;;;;0.80;0.68;;;;;;;13.64;73.75;100170.50;1697467;83;20872;-78
2021/08/27 00:50:12;;;;;;;1.85;0.70;;;;;;;13.60;73.85;100169.76;1697608;84;26766;-78
2021/08/27 00:52:40;;;;;;;6.90;0.80;;;;;;;13.57;73.89;100173.77;1697031;83;20911;-78
2021/08/27 00:55:07;;;;;;;2.55;0.75;;;;;;;13.56;74.08;100174.22;1697635;83;20915;-78
2021/08/27 00:57:34;;;;;;;1.32;0.60;;;;;;;13.61;74.22;100177.10;1697465;83;21368;-78
2021/08/27 01:00:00;;;;;;;0.65;0.57;;;;;;;13.63;74.20;100174.84;1697508;83;22014;-78
2021/08/27 01:02:28;;;;;;;4.67;0.70;;;;;;;13.63;74.17;100181.34;1697061;83;21368;-78
2021/08/27 01:04:57;;;;;;;2.33;1.65;;;;;;;13.58;74.04;100189.30;1697390;83;21380;-78
2021/08/27 01:07:30;;;;;;;2.65;0.80;;;;;;;13.51;74.13;100190.89;1697016;83;20895;-78
2021/08/27 01:10:18;;;;;;;8.55;1.40;;;;;;;13.49;74.14;100193.55;1696833;83;20919;-78
2021/08/27 01:13:07;;;;;;;2.67;0.80;;;;;;;13.44;74.18;100188.95;1696626;83;20927;-78
2021/08/27 01:16:05;;;;;;;3.67;0.60;;;;;;;13.42;74.33;100195.11;1695403;83;20932;-78
2021/08/27 01:19:15;;;;;;;3.35;0.80;;;;;;;13.38;74.28;100197.41;1697140;83;20932;-78
2021/08/27 01:22:13;;;;;;;0.75;0.70;;;;;;;13.36;74.41;100203.95;1693694;83;20924;-78
2021/08/27 01:24:42;;;;;;;0.82;0.82;;;;;;;13.37;74.54;100198.31;1697045;83;20966;-78
2021/08/27 01:27:12;;;;;;;1.05;0.85;;;;;;;13.40;74.57;100196.91;1697538;83;21400;-78
2021/08/27 01:29:58;;;;;;;1.12;0.90;;;;;;;13.43;74.61;100200.25;1697311;83;20911;-78
2021/08/27 01:32:54;;;;;;;1.70;1.00;;;;;;;13.45;74.71;100200.20;1669953;83;21536;-78
2021/08/27 01:35:21;;;;;;;5.25;0.98;;;;;;;13.49;74.78;100201.34;1695763;83;20868;-78
2021/08/27 01:37:55;;;;;;;1.12;1.00;;;;;;;13.50;74.80;100205.63;1693736;83;21436;-78
2021/08/27 01:40:23;;;;;;;1.10;0.90;;;;;;;13.52;74.82;100201.20;1697441;83;20923;-78
2021/08/27 01:42:51;;;;;;;1.10;1.00;;;;;;;13.54;74.85;100202.45;1697386;83;20951;-78
2021/08/27 01:45:19;;;;;;;2.92;1.07;;;;;;;13.55;74.90;100206.29;1697193;83;20884;-78
2021/08/27 01:47:47;;;;;;;1.37;0.95;;;;;;;13.53;74.73;100207.25;1697544;83;20955;-78
2021/08/27 01:50:15;;;;;;;0.90;0.85;;;;;;;13.48;74.82;100203.98;1697447;83;20947;-78
2021/08/27 01:52:44;;;;;;;3.08;1.10;;;;;;;13.49;74.99;100207.83;1697173;83;20914;-78
2021/08/27 01:55:11;;;;;;;3.75;1.27;;;;;;;13.52;75.04;100206.84;1697691;83;20907;-78
2021/08/27 01:57:39;;;;;;;1.35;0.85;;;;;;;13.53;75.02;100203.34;1697229;83;20919;-78
2021/08/27 02:00:07;;;;;;;2.67;1.00;;;;;;;13.49;74.94;100203.09;1696455;83;20939;-78
2021/08/27 02:02:36;;;;;;;1.32;1.22;;;;;;;13.46;74.97;100204.49;1681424;83;21490;-78
2021/08/27 02:05:06;;;;;;;1.00;1.00;;;;;;;13.47;75.05;100203.59;1697476;83;20955;-78
2021/08/27 02:07:33;;;;;;;1.98;1.22;;;;;;;13.47;75.12;100204.89;1697205;83;21717;-78
2021/08/27 02:10:01;;;;;;;1.15;0.82;;;;;;;13.47;75.08;100199.70;1701698;83;20929;-78
2021/08/27 02:12:27;;;;;;;1.72;1.00;;;;;;;13.46;75.20;100204.49;1702776;83;20954;-78
2021/08/27 02:14:56;;;;;;;1.17;1.07;;;;;;;13.46;75.25;100197.55;1696825;84;21572;-78
2021/08/27 02:17:25;;;;;;;0.98;0.90;;;;;;;13.48;75.22;100202.23;1695818;84;20990;-78
2021/08/27 02:19:53;;;;;;;1.20;1.10;;;;;;;13.46;75.30;100202.74;1695866;83;21427;-78
2021/08/27 02:22:25;;;;;;;1.77;1.07;;;;;;;13.45;75.16;100206.24;1694799;83;21582;-78
2021/08/27 02:25:02;;;;;;;1.25;1.07;;;;;;;13.34;74.97;100209.65;1686633;83;20909;-78
2021/08/27 02:27:31;;;;;;;0.80;0.80;;;;;;;13.22;75.11;100209.61;1686223;84;21434;-78
2021/08/27 02:29:59;;;;;;;3.52;1.05;;;;;;;13.22;75.29;100207.46;1697133;83;20950;-78
2021/08/27 02:32:27;;;;;;;1.22;0.75;;;;;;;13.16;75.27;100210.26;1697700;83;21466;-78
2021/08/27 02:35:03;;;;;;;2.77;0.90;;;;;;;13.14;75.37;100218.52;1716676;79;21463;-78
2021/08/27 02:37:33;;;;;;;1.45;1.10;;;;;;;13.15;75.53;100218.91;1707205;82;21336;-78
2021/08/27 02:40:01;;;;;;;3.62;1.20;;;;;;;13.16;75.55;100216.75;1713501;82;20903;-78
2021/08/27 02:42:30;;;;;;;3.75;1.10;;;;;;;13.18;75.59;100217.55;1713870;83;20868;-78
2021/08/27 02:44:57;;;;;;;1.75;1.02;;;;;;;13.19;75.59;100216.65;1700796;82;21415;-78
2021/08/27 02:47:24;;;;;;;1.82;1.00;;;;;;;13.20;75.69;100214.00;1722795;80;20915;-78
2021/08/27 02:49:51;;;;;;;1.35;1.05;;;;;;;13.19;75.55;100212.75;1714487;83;20876;-78
2021/08/27 02:52:28;;;;;;;0.90;0.90;;;;;;;13.18;75.70;100212.36;1714084;82;20880;-78
2021/08/27 02:55:15;;;;;;;1.70;1.15;;;;;;;13.21;75.78;100217.45;1714497;82;21526;-78
2021/08/27 02:57:58;;;;;;;;;;;;;;;13.20;75.76;100215.30;1706069;83;21400;-78
2021/08/27 03:00:28;;;;;;;1.20;1.00;;;;;;;13.18;76.08;100215.80;1714126;82;20393;-78
2021/08/27 03:03:05;;;;;;;1.90;1.07;;;;;;;13.18;75.79;100217.55;1714100;82;21368;-78
2021/08/27 03:05:40;;;;;;;0.93;0.93;;;;;;;13.13;75.61;100210.33;1714424;82;21479;-78
2021/08/27 03:08:11;;;;;;;1.32;0.93;;;;;;;13.12;75.83;100217.27;1712651;82;21471;-78
2021/08/27 03:11:13;;;;;;;1.47;0.88;;;;;;;13.11;75.86;100209.08;1714180;82;21724;-78
2021/08/27 03:13:56;;;;;;;1.15;0.90;;;;;;;13.10;75.92;100211.28;1714170;82;20951;-78
2021/08/27 03:16:24;;;;;;;3.02;0.85;;;;;;;13.09;75.92;100207.43;1714380;82;21400;-78
2021/08/27 03:19:02;;;;;;;2.75;1.00;;;;;;;13.07;75.93;100211.83;1713678;82;21416;-78
2021/08/27 03:21:39;;;;;;;1.00;0.90;;;;;;;13.04;75.96;100212.77;1714406;82;21391;-78
2021/08/27 03:24:23;;;;;;;2.85;1.00;;;;;;;13.03;76.03;100217.56;1714377;82;21392;-78
2021/08/27 03:26:55;;;;;;;1.77;0.85;;;;;;;13.00;75.90;100216.36;1714566;82;21420;-78
2021/08/27 03:29:23;;;;;;;1.52;1.07;;;;;;;12.99;76.02;100217.30;1707673;82;20920;-78
2021/08/27 03:31:50;;;;;;;1.00;1.00;;;;;;;12.99;76.12;100212.10;1712120;82;21420;-78
2021/08/27 03:34:18;;;;;;;1.32;1.00;;;;;;;13.00;76.14;100212.95;1716572;83;21446;-78
2021/08/27 03:36:45;;;;;;;1.57;1.10;;;;;;;12.97;76.10;100219.54;1719568;83;21813;-78
2021/08/27 03:39:12;;;;;;;2.85;1.42;;;;;;;12.95;76.13;100213.55;1682218;84;26635;-78
2021/08/27 03:41:42;;;;;;;1.07;1.07;;;;;;;12.95;76.22;100219.59;1696176;83;21498;-78
2021/08/27 03:44:09;;;;;;;3.33;1.30;;;;;;;12.90;76.12;100216.29;1695957;83;20960;-78
2021/08/27 03:46:37;;;;;;;4.83;0.90;;;;;;;12.85;76.08;100212.98;1696463;83;21495;-78
2021/08/27 03:49:05;;;;;;;1.47;1.35;;;;;;;12.84;76.28;100217.33;1697250;83;21476;-78
2021/08/27 03:51:32;;;;;;;1.35;1.22;;;;;;;12.86;76.38;100216.83;1696597;83;20878;-78
2021/08/27 03:53:59;;;;;;;1.37;1.10;;;;;;;12.88;76.36;100212.89;1695795;83;21532;-78
2021/08/27 03:56:27;;;;;;;6.90;1.35;;;;;;;12.86;76.32;100206.91;1697110;83;21531;-78
2021/08/27 03:58:55;;;;;;;1.30;1.20;;;;;;;12.84;76.38;100206.95;1695297;83;21579;-78
2021/08/27 04:01:22;;;;;;;1.90;1.47;;;;;;;12.85;76.47;100206.50;1695824;83;21538;-79
2021/08/27 04:03:49;;;;;;;3.62;1.40;;;;;;;12.87;76.50;100206.01;1695025;83;21453;-79
2021/08/27 04:06:15;;;;;;;;;;;;;;;12.78;76.46;100196.77;1697912;83;22275;-78
2021/08/27 04:08:43;;;;;;;1.57;1.32;;;;;;;12.87;76.80;100209.90;1688593;83;20189;-78
2021/08/27 04:11:13;;;;;;;1.45;1.20;;;;;;;12.84;76.49;100205.66;1693314;83;21599;-78
2021/08/27 04:13:40;;;;;;;1.32;1.20;;;;;;;12.83;76.52;100211.73;1698281;83;21103;-78
2021/08/27 04:16:06;;;;;;;2.72;1.60;;;;;;;12.77;76.43;100216.27;1695619;83;26595;-78
2021/08/27 04:18:38;;;;;;;3.70;1.45;;;;;;;12.73;76.50;100220.70;1695376;84;21108;-78
2021/08/27 04:21:05;;;;;;;7.17;1.62;;;;;;;12.72;76.50;100220.75;1695740;83;21063;-78
2021/08/27 04:23:34;;;;;;;3.20;1.30;;;;;;;12.71;76.64;100227.69;1694888;83;20971;-78
2021/08/27 04:26:06;;;;;;;2.22;1.30;;;;;;;12.73;76.71;100224.59;1695147;83;21107;-78
2021/08/27 04:28:32;;;;;;;3.22;1.50;;;;;;;12.74;76.69;100216.37;1695112;83;21162;-78
2021/08/27 04:30:59;;;;;;;2.85;1.30;;;;;;;12.72;76.77;100220.31;1707128;83;21067;-78
2021/08/27 04:33:25;;;;;;;1.42;1.27;;;;;;;12.71;76.77;100231.58;1691285;83;21543;-78
2021/08/27 04:35:52;;;;;;;2.67;1.35;;;;;;;12.73;76.82;100228.94;1668688;84;21052;-79
2021/08/27 04:38:18;;;;;;;1.30;1.20;;;;;;;12.72;76.70;100225.94;1660428;85;21061;-79
2021/08/27 04:40:44;;;;;;;1.52;1.27;;;;;;;12.71;76.77;100229.44;1663028;85;21129;-78
2021/08/27 04:43:11;;;;;;;2.80;1.35;;;;;;;12.59;76.78;100218.53;1665935;85;21052;-78
2021/08/27 04:45:40;;;;;;;4.05;1.72;;;;;;;12.59;76.78;100218.53;1653150;85;21056;-78
2021/08/27 04:48:06;;;;;;;2.20;1.40;;;;;;;12.71;76.86;100238.52;1665927;85;21141;-78
2021/08/27 04:50:33;;;;;;;1.47;1.37;;;;;;;12.72;76.94;100237.62;1663591;85;25490;-78
2021/08/27 04:52:59;;;;;;;1.60;1.50;;;;;;;12.70;76.92;100241.55;1668983;85;21048;-78
2021/08/27 04:55:25;;;;;;;1.60;1.50;;;;;;;12.68;76.86;100241.20;1663963;85;21048;-78
2021/08/27 04:58:01;;;;;;;2.35;1.65;;;;;;;12.72;77.02;100244.95;1660993;85;21024;-78
2021/08/27 05:00:27;;;;;;;4.65;1.67;;;;;;;12.83;77.15;100249.81;1667332;85;21086;-78
2021/08/27 05:02:53;;;;;;;3.58;1.27;;;;;;;12.90;77.00;100251.32;1668174;85;21050;-78
2021/08/27 05:05:25;;;;;;;1.60;1.50;;;;;;;12.98;77.08;100245.45;1667272;85;21108;-78
2021/08/27 05:07:52;;;;;;;5.40;1.70;;;;;;;13.07;76.96;100249.02;1669385;85;21036;-78
2021/08/27 05:10:24;;;;;;;1.77;1.67;;;;;;;13.19;77.18;100253.84;1667815;85;21493;-78
2021/08/27 05:12:50;;;;;;;2.40;1.95;;;;;;;13.35;77.11;100253.34;1670151;84;21143;-78
2021/08/27 05:15:17;;;;;;;3.83;1.70;;;;;;;13.44;77.00;100256.94;1666135;83;21053;-78
2021/08/27 05:17:43;;;;;;;4.55;2.00;;;;;;;13.61;77.34;100255.05;1669741;85;21052;-78
2021/08/27 05:20:10;;;;;;;1.75;1.62;;;;;;;13.84;77.42;100253.80;1669382;85;21133;-78
2021/08/27 05:22:36;;;;;;;2.72;2.10;;;;;;;14.13;77.62;100259.23;1658626;85;21668;-78
2021/08/27 05:25:03;;;;;;;2.67;1.70;;;;;;;14.54;77.55;100258.59;1672637;84;21135;-78
2021/08/27 05:27:30;;;;;;;3.22;1.87;;;;;;;14.82;77.10;100260.95;1669589;85;21649;-78
2021/08/27 05:29:56;;;;;;;2.17;2.00;;;;;;;14.95;77.12;100267.83;1660553;85;21101;-78
2021/08/27 05:32:24;;;;;;;2.98;1.40;;;;;;;15.14;77.19;100267.92;1660217;85;21124;-78
2021/08/27 05:34:50;;;;;;;5.03;1.47;;;;;;;15.27;77.08;100268.27;1678443;84;22196;-78
2021/08/27 05:37:18;;;;;;;2.75;1.75;;;;;;;15.33;76.98;100275.84;1664595;85;21560;-78
2021/08/27 05:39:44;;;;;;;2.15;2.00;;;;;;;15.30;76.76;100278.11;1684550;84;21087;-78
2021/08/27 05:42:11;;;;;;;1.82;1.70;;;;;;;15.27;76.88;100280.00;1684252;84;21040;-78
2021/08/27 05:44:37;;;;;;;2.12;1.92;;;;;;;15.28;76.88;100282.99;1686794;83;21075;-78
2021/08/27 05:47:04;;;;;;;4.05;2.27;;;;;;;15.21;76.97;100286.30;1711355;82;21045;-78
2021/08/27 05:49:30;;;;;;;2.60;2.40;;;;;;;15.20;77.01;100282.84;1711522;83;21041;-78
2021/08/27 05:51:57;;;;;;;2.10;2.00;;;;;;;15.25;77.10;100285.27;1711604;83;21030;-78
2021/08/27 05:54:23;;;;;;;3.47;2.08;;;;;;;15.28;76.95;100288.20;1710980;83;21050;-78
2021/08/27 05:56:50;;;;;;;2.20;2.05;;;;;;;15.25;76.95;100287.87;1709820;83;20977;-78
2021/08/27 05:59:16;;;;;;;2.50;2.33;;;;;;;15.33;77.06;100288.86;1704062;82;21085;-78
2021/08/27 06:01:48;;;;;;;2.62;2.42;;;;;;;15.40;76.92;100285.10;1709819;82;21073;-78
2021/08/27 06:04:15;;;;;;;2.85;2.67;;;;;;;15.46;77.00;100288.76;1711532;82;21054;-78
2021/08/27 06:06:41;;;;;;;3.02;2.83;;;;;;;15.54;76.99;100293.20;1710222;82;21114;-78
2021/08/27 06:09:08;;;;;;;3.00;2.80;;;;;;;15.61;76.85;100292.03;1709340;82;21089;-78
2021/08/27 06:11:37;;;;;;;3.12;2.92;;;;;;;15.64;76.90;100297.13;1706142;83;21074;-78
2021/08/27 06:14:05;;;;;;;4.10;2.95;;;;;;;15.68;76.84;100297.38;1711410;82;21006;-78
2021/08/27 06:16:32;;;;;;;3.40;3.20;;;;;;;15.66;76.70;100295.75;1712531;83;21062;-78
2021/08/27 06:19:00;;;;;;;4.00;3.40;;;;;;;15.61;76.71;100296.40;1707251;82;21105;-78
2021/08/27 06:21:26;;;;;;;5.30;3.30;;;;;;;15.57;76.87;100304.83;1703485;82;21066;-78
2021/08/27 06:23:52;;;;;;;5.08;3.50;;;;;;;15.60;76.84;100305.16;1703966;82;21157;-78
2021/08/27 06:26:19;;;;;;;3.80;3.60;;;;;;;15.67;77.02;100299.59;1705765;82;21086;-78
2021/08/27 06:28:48;;;;;;;4.92;3.42;;;;;;;15.74;76.91;100305.41;1690693;82;21118;-78
2021/08/27 06:31:14;;;;;;;4.58;3.60;;;;;;;15.72;76.71;100302.86;1695319;82;21345;-78
2021/08/27 06:33:41;;;;;;;5.03;3.17;;;;;;;15.66;76.71;100300.97;1694784;82;21114;-78
2021/08/27 06:36:08;;;;;;;3.72;3.52;;;;;;;15.69;76.79;100309.96;1664390;83;21103;-78
2021/08/27 06:38:34;;;;;;;3.80;3.60;;;;;;;15.71;76.73;100310.29;1672349;83;21130;-78
2021/08/27 06:41:04;;;;;;;3.92;3.65;;;;;;;15.73;76.77;100309.77;1642274;85;21168;-78
2021/08/27 06:43:35;;;;;;;4.53;4.22;;;;;;;15.79;76.85;100311.27;1641154;85;21076;-78
2021/08/27 06:46:09;;;;;;;4.87;4.55;;;;;;;15.82;76.70;100313.75;1642812;84;21074;-78
2021/08/27 06:48:39;;;;;;;5.15;4.75;;;;;;;15.77;76.58;100313.95;1640786;85;21068;-77
2021/08/27 06:51:06;;;;;;;5.15;4.65;;;;;;;15.75;76.66;100315.77;1640484;84;21071;-77
2021/08/27 06:53:32;;;;;;;;;;;;;;;15.79;76.66;100313.88;1656153;84;21097;-77
2021/08/27 06:56:02;;;;;;;3.75;3.55;;;;;;;15.79;76.53;100311.27;1663253;85;20181;-77
2021/08/27 06:58:31;;;;;;;4.40;4.10;;;;;;;15.76;76.56;100316.16;1661304;84;21054;-77
2021/08/27 07:00:58;;;;;;;4.42;3.98;;;;;;;15.74;76.53;100317.13;1663758;84;20995;-78
2021/08/27 07:03:25;;;;;;;4.08;3.77;;;;;;;15.73;76.58;100319.35;1668814;84;21042;-78
2021/08/27 07:05:52;;;;;;;;;;;;;;;15.78;76.68;100320.00;1681958;83;21094;-78
2021/08/27 07:08:20;;;;;;;3.47;2.80;;;;;;;15.81;76.43;100322.48;1674034;84;20188;-78
2021/08/27 07:10:46;;;;;;;;;;;;;;;15.83;76.51;100325.88;1678494;83;21054;-78
2021/08/27 07:13:13;;;;;;;3.22;2.92;;;;;;;15.84;76.46;100324.51;1665789;83;20168;-78
2021/08/27 07:15:43;;;;;;;3.17;2.98;;;;;;;15.94;76.61;100326.73;1665532;85;21121;-78
2021/08/27 07:18:10;;;;;;;3.20;3.00;;;;;;;16.01;76.55;100325.55;1669478;84;21532;-78
2021/08/27 07:20:37;;;;;;;2.95;2.75;;;;;;;16.12;76.54;100325.91;1665094;84;21458;-78
2021/08/27 07:23:22;;;;;;;2.87;2.67;;;;;;;16.23;76.51;100326.29;1663851;85;21441;-78
2021/08/27 07:25:59;;;;;;;2.72;2.50;;;;;;;16.36;76.38;100323.53;1670126;85;20884;-78
2021/08/27 07:28:25;;;;;;;2.47;2.30;;;;;;;16.57;76.48;100323.03;1656786;84;20965;-78
2021/08/27 07:30:52;;;;;;;4.37;2.00;;;;;;;16.74;76.30;100325.72;1668329;85;20962;-78
2021/08/27 07:33:18;;;;;;;2.58;2.37;;;;;;;16.91;76.33;100328.86;1649904;85;20968;-78
2021/08/27 07:35:44;;;;;;;2.47;2.37;;;;;;;17.16;76.27;100322.84;1641488;85;20897;-78
2021/08/27 07:38:12;;;;;;;2.37;2.17;;;;;;;17.44;76.33;100326.74;1653810;85;20968;-78
2021/08/27 07:40:38;;;;;;;2.52;2.40;;;;;;;17.63;75.93;100330.16;1660896;85;20929;-78
2021/08/27 07:43:05;;;;;;;2.20;1.85;;;;;;;17.69;75.87;100331.62;1660334;85;20960;-78
2021/08/27 07:45:43;;;;;;;2.85;1.60;;;;;;;17.93;76.29;100336.08;1658011;85;20913;-78
2021/08/27 07:48:10;;;;;;;1.60;1.50;;;;;;;18.29;75.80;100338.09;1655588;85;20921;-78
2021/08/27 07:50:36;;;;;;;;;;;;;;;18.38;75.81;100342.84;1661829;85;20956;-78
2021/08/27 07:53:04;;;;;;;2.20;2.00;;;;;;;18.59;75.31;100335.63;1647712;85;20109;-78
2021/08/27 07:55:30;;;;;;;7.67;1.32;;;;;;;18.58;75.36;100333.94;1658777;85;21055;-78
2021/08/27 07:57:56;;;;;;;1.40;1.22;;;;;;;18.40;75.25;100340.15;1675034;85;21117;-78
2021/08/27 08:00:41;;;;;;;2.15;1.10;;;;;;;18.33;75.42;100340.09;1680473;83;21548;-78
2021/08/27 08:03:09;;;;;;;1.20;1.10;;;;;;;18.22;75.32;100340.64;1680172;83;21053;-78
2021/08/27 08:05:35;;;;;;;0.85;0.85;;;;;;;18.06;75.20;100343.69;1676166;84;21063;-78
2021/08/27 08:08:02;;;;;;;0.78;0.78;;;;;;;17.97;75.28;100344.16;1681021;83;21083;-78
2021/08/27 08:10:47;;;;;;;1.57;1.10;;;;;;;17.93;75.25;100343.93;1676430;83;21098;-78
2021/08/27 08:13:14;;;;;;;2.83;0.90;;;;;;;17.82;75.14;100353.16;1659064;84;21558;-78
2021/08/27 08:15:40;;;;;;;2.52;1.00;;;;;;;17.73;75.20;100348.39;1679648;83;21357;-78
2021/08/27 08:18:06;;;;;;;3.50;1.02;;;;;;;17.68;75.11;100355.61;1676880;85;21046;-78
2021/08/27 08:20:51;;;;;;;1.15;0.90;;;;;;;17.57;75.06;100358.37;1666502;83;21168;-78
2021/08/27 08:23:37;;;;;;;2.87;1.00;;;;;;;17.44;75.00;100358.11;1644399;85;21116;-78
2021/08/27 08:26:23;;;;;;;1.90;1.00;;;;;;;17.32;74.89;100362.16;1641411;85;21032;-78
2021/08/27 08:29:01;;;;;;;0.82;0.80;;;;;;;17.14;74.92;100367.83;1645386;85;21627;-78
2021/08/27 08:31:29;;;;;;;0.95;0.95;;;;;;;17.09;74.94;100363.73;1623814;85;21127;-78
2021/08/27 08:33:59;;;;;;;1.17;0.98;;;;;;;17.11;75.00;100371.05;1656177;85;21603;-78
2021/08/27 08:36:31;;;;;;;1.37;0.80;;;;;;;17.23;75.12;100369.13;1645369;85;21079;-77
2021/08/27 08:38:57;;;;;;;1.25;0.95;;;;;;;17.38;74.89;100368.41;1636060;85;21131;-78
2021/08/27 08:41:24;;;;;;;0.80;0.80;;;;;;;17.56;74.88;100373.20;1647038;85;21571;-76
2021/08/27 08:44:08;;;;;;;0.50;0.50;;;;;;;17.77;74.75;100376.55;1656081;84;21170;-76
2021/08/27 08:46:56;;;;;;;0.60;0.60;;;;;;;17.94;74.56;100379.63;1648941;85;21504;-76
2021/08/27 08:49:40;;;;;;;;;;;;;;;18.14;74.53;100386.02;1649971;85;21080;-76
2021/08/27 08:52:07;;;;;;;0.62;0.40;;;;;;;18.31;73.86;100384.66;1651980;85;20265;-76
2021/08/27 08:54:35;;;;;;;5.00;0.72;;;;;;;18.40;74.21;100386.81;1681931;83;21104;-76
2021/08/27 08:57:02;;;;;;;1.15;0.70;;;;;;;18.38;73.96;100382.58;1662657;85;21080;-76
2021/08/27 08:59:29;;;;;;;2.95;0.70;;;;;;;18.37;74.09;100384.35;1677464;85;21536;-76
2021/08/27 09:02:14;;;;;;;0.90;0.80;;;;;;;18.36;73.94;100387.05;1675103;83;21452;-76
2021/08/27 09:04:40;;;;;;;0.85;0.82;;;;;;;18.37;73.75;100383.04;1647717;85;21057;-77
2021/08/27 09:07:06;;;;;;;2.25;0.80;;;;;;;18.35;73.70;100388.81;1659650;85;21621;-77
2021/08/27 09:09:40;;;;;;;1.52;0.93;;;;;;;18.38;73.87;100386.50;1649492;85;21534;-78
2021/08/27 09:12:25;;;;;;;0.68;0.68;;;;;;;18.39;73.75;100383.81;1654412;85;21111;-78
2021/08/27 09:15:13;;;;;;;0.55;0.55;;;;;;;18.40;73.66;100383.34;1649687;85;21100;-78
2021/08/27 09:18:06;;;;;;;2.60;0.50;;;;;;;18.27;73.56;100383.13;1627897;85;20963;-78
2021/08/27 09:20:41;;;;;;;1.02;0.60;;;;;;;18.22;73.39;100391.68;1635806;85;20933;-78
2021/08/27 09:23:07;;;;;;;1.20;0.55;;;;;;;18.14;73.47;100388.64;1650918;85;20936;-78
2021/08/27 09:25:36;;;;;;;0.75;0.40;;;;;;;18.10;73.32;100387.95;1653620;85;20924;-78
2021/08/27 09:28:13;;;;;;;0.57;0.57;;;;;;;18.03;73.19;100392.25;1655011;85;20961;-78
2021/08/27 09:30:54;;;;;;;;;;;;;;;17.99;73.14;100395.48;1663043;85;20925;-78
2021/08/27 09:33:24;;;;;;;0.65;0.55;;;;;;;17.88;72.74;100403.02;1660032;85;20090;-78
2021/08/27 09:36:07;;;;;;;1.15;0.53;;;;;;;17.84;73.08;100397.55;1655526;85;20965;-78
2021/08/27 09:38:36;;;;;;;0.82;0.60;;;;;;;17.63;72.78;100401.21;1651517;85;20929;-78
2021/08/27 09:41:11;;;;;;;0.85;0.70;;;;;;;17.52;72.98;100397.34;1647876;85;20998;-78
2021/08/27 09:43:52;;;;;;;1.65;0.55;;;;;;;17.49;72.96;100394.88;1663007;84;20893;-78
2021/08/27 09:46:45;;;;;;;2.00;0.80;;;;;;;17.46;72.89;100402.02;1636384;86;21017;-78
2021/08/27 09:49:33;;;;;;;0.60;0.60;;;;;;;17.37;72.84;100402.45;1655730;85;20980;-78
2021/08/27 09:52:02;;;;;;;1.00;0.90;;;;;;;17.12;72.84;100402.33;1678849;84;28008;-78
2021/08/27 09:54:33;;;;;;;0.82;0.80;;;;;;;17.06;72.81;100406.52;1683352;84;20930;-78
2021/08/27 09:57:03;;;;;;;1.45;0.90;;;;;;;16.99;73.00;100407.72;1672804;84;20945;-78
2021/08/27 09:59:50;;;;;;;1.27;0.70;;;;;;;17.08;73.18;100407.76;1670664;84;20890;-78
2021/08/27 10:02:29;;;;;;;2.37;0.62;;;;;;;17.20;73.20;100421.08;1680227;84;21063;-78
2021/08/27 10:04:59;;;;;;;0.98;0.98;;;;;;;17.33;73.00;100417.89;1706914;82;20881;-77
2021/08/27 10:07:45;;;;;;;0.93;0.70;;;;;;;17.40;72.87;100414.07;1709512;82;20969;-79
2021/08/27 10:10:25;;;;;;;0.62;0.62;;;;;;;17.45;72.75;100412.09;1711922;82;20913;-75
2021/08/27 10:13:07;;;;;;;;;;;;;;;17.49;72.72;100411.88;1712295;82;21350;-76
2021/08/27 10:15:34;;;;;;;2.45;0.88;;;;;;;17.46;72.32;100407.25;1702486;84;20089;-76
2021/08/27 10:18:00;;;;;;;1.40;1.22;;;;;;;17.46;72.56;100408.55;1707062;82;20897;-75
2021/08/27 10:20:47;;;;;;;55.15;3.52;;;;;;;17.55;72.71;100408.12;1702358;82;20933;-79
2021/08/27 10:23:17;;;;;;;1.22;1.00;;;;;;;17.70;72.56;100411.77;1697702;82;20992;-73
2021/08/27 10:25:45;;;;;;;1.45;1.30;;;;;;;17.79;72.44;100416.55;1708232;82;21103;-73
2021/08/27 10:28:12;;;;;;;1.20;1.20;;;;;;;17.90;72.36;100417.33;1702024;82;20996;-74
2021/08/27 10:30:58;;;;;;;1.17;1.15;;;;;;;18.00;72.28;100414.65;1700690;82;21064;-76
2021/08/27 10:33:45;;;;;;;1.50;1.40;;;;;;;18.03;72.15;100407.95;1653687;85;21491;-78
2021/08/27 10:36:32;;;;;;;1.52;1.05;;;;;;;18.08;72.20;100409.42;1685672;83;21533;-77
2021/08/27 10:39:01;;;;;;;2.75;0.90;;;;;;;18.15;72.22;100406.87;1720207;83;21114;-76
2021/08/27 10:41:46;;;;;;;3.00;1.20;;;;;;;18.27;72.20;100404.53;1719951;81;21031;-74
2021/08/27 10:44:50;;;;;;;0.90;0.85;;;;;;;18.28;71.92;100408.84;1706342;82;21110;-74
2021/08/27 10:47:18;;;;;;;0.85;0.85;;;;;;;18.28;72.03;100407.08;1674100;84;21056;-74
2021/08/27 10:49:53;;;;;;;2.40;1.00;;;;;;;18.24;71.81;100408.16;1719203;83;21083;-73
2021/08/27 10:52:39;;;;;;;1.35;1.27;;;;;;;18.23;71.89;100410.39;1638252;86;21076;-75
2021/08/27 10:55:25;;;;;;;2.75;1.17;;;;;;;18.22;71.75;100410.47;1637445;86;21111;-74
2021/08/27 10:58:13;;;;;;;;;;;;;;;18.23;71.88;100406.92;1609839;87;21555;-74
2021/08/27 11:00:58;;;;;;;2.47;1.05;;;;;;;18.24;71.43;100412.54;1624627;88;20254;-76
2021/08/27 11:04:07;;;;;;;1.07;0.98;;;;;;;18.22;71.71;100413.92;1619532;87;21121;-76
2021/08/27 11:06:53;;;;;;;1.02;1.00;;;;;;;18.17;71.57;100416.81;1637777;86;21422;-76
2021/08/27 11:09:26;;;;;;;1.92;1.57;;;;;;;18.05;71.56;100408.27;1615282;87;21160;-75
2021/08/27 11:12:15;;;;;;;1.20;1.10;;;;;;;18.01;71.62;100408.03;1625508;86;21128;-76
2021/08/27 11:14:46;;;;;;;1.25;1.15;;;;;;;17.97;71.60;100405.18;1613341;87;20908;-76
2021/08/27 11:17:20;;;;;;;1.90;1.32;;;;;;;17.91;71.51;100408.10;1621549;87;21104;-76
2021/08/27 11:19:51;;;;;;;1.25;1.17;;;;;;;17.85;71.50;100417.55;1621621;86;21111;-76
2021/08/27 11:22:26;;;;;;;1.27;1.00;;;;;;;17.77;71.32;100415.77;1614934;84;21163;-76
2021/08/27 11:25:12;;;;;;;1.60;1.35;;;;;;;17.70;71.47;100415.69;1702282;83;21518;-73
2021/08/27 11:27:39;;;;;;;1.22;1.20;;;;;;;17.66;71.37;100412.86;1709879;83;21081;-73
2021/08/27 11:30:33;;;;;;;1.30;1.20;;;;;;;17.61;71.26;100409.13;1705395;82;21094;-73
2021/08/27 11:33:00;;;;;;;1.52;1.32;;;;;;;17.56;71.24;100412.42;1721984;81;21094;-73
2021/08/27 11:35:28;;;;;;;1.55;1.45;;;;;;;17.52;71.14;100415.65;1709631;83;21055;-73
2021/08/27 11:38:08;;;;;;;3.72;1.50;;;;;;;17.45;71.09;100417.31;1699156;83;20925;-72
2021/08/27 11:40:42;;;;;;;1.52;1.35;;;;;;;17.44;71.18;100422.16;1704284;83;20941;-72
2021/08/27 11:43:08;;;;;;;1.67;1.10;;;;;;;17.45;71.15;100416.02;1586342;82;2507187;-72
2021/08/27 11:45:34;;;;;;;2.85;1.35;;;;;;;17.47;71.14;100409.79;1629338;87;28594;-72
2021/08/27 11:48:19;;;;;;;2.58;1.17;;;;;;;17.53;71.15;100410.80;1650786;85;21907;-72